Lac Du Flambeau, Wisconsin
Current Conditions -  °F | °C
As of 7:55 PM on Monday 20 Oct 2014 (Local Time) from KARV Reporting Station
Drizzle Drizzle  
Wind Chill: 40°   Ceiling: 3600
Heat Index: 44°   Visibility: 5mi
Dew Point: 42°   Wind: 7mph
Humidity: 93%   Direction: 330°NNW
Pressure: 30.03"   Gusts: NA
Location:  45.97°N, 89.89°W
Report Text: KARV 210055Z AUTO 33006KT 5SM -DZ SCT012 SCT020 OVC036 07/06 A3003 RMK AO2 T00670056
Loading
Personal Weather Stations






























Interactive Weather Map
Tropical Storm Tracking
New forecast layout! Learn more

10-Day Weather Forecast

Advertisements
Track Severe Weather on mobile